sensor_id;sensor_type;location;lat;lon;timestamp;P1;durP1;ratioP1;P2;durP2;ratioP2
80249;SDS011;69561;37.974;23.708;2023-07-31T00:00:27;4.38;;;2.45;;
80249;SDS011;69561;37.974;23.708;2023-07-31T00:02:52;6.28;;;2.30;;
80249;SDS011;69561;37.974;23.708;2023-07-31T00:05:19;4.07;;;2.10;;
80249;SDS011;69561;37.974;23.708;2023-07-31T00:07:45;2.58;;;2.10;;
80249;SDS011;69561;37.974;23.708;2023-07-31T00:10:10;2.20;;;2.00;;
80249;SDS011;69561;37.974;23.708;2023-07-31T00:12:37;7.72;;;2.20;;
80249;SDS011;69561;37.974;23.708;2023-07-31T00:17:33;3.13;;;2.20;;
80249;SDS011;69561;37.974;23.708;2023-07-31T00:19:58;5.28;;;2.13;;
80249;SDS011;69561;37.974;23.708;2023-07-31T00:22:24;3.50;;;2.53;;
80249;SDS011;69561;37.974;23.708;2023-07-31T00:24:50;3.55;;;2.00;;
80249;SDS011;69561;37.974;23.708;2023-07-31T00:27:16;2.72;;;1.90;;
80249;SDS011;69561;37.974;23.708;2023-07-31T00:29:42;2.85;;;2.28;;
80249;SDS011;69561;37.974;23.708;2023-07-31T00:32:07;3.33;;;2.13;;
80249;SDS011;69561;37.974;23.708;2023-07-31T00:34:33;2.25;;;1.98;;
80249;SDS011;69561;37.974;23.708;2023-07-31T00:36:59;2.97;;;2.30;;
80249;SDS011;69561;37.974;23.708;2023-07-31T00:39:24;3.63;;;2.20;;
80249;SDS011;69561;37.974;23.708;2023-07-31T00:41:50;3.00;;;2.10;;
80249;SDS011;69561;37.974;23.708;2023-07-31T00:44:16;2.80;;;2.20;;
80249;SDS011;69561;37.974;23.708;2023-07-31T00:46:41;4.32;;;1.92;;
80249;SDS011;69561;37.974;23.708;2023-07-31T00:49:08;3.78;;;2.08;;
80249;SDS011;69561;37.974;23.708;2023-07-31T00:51:34;3.80;;;2.20;;
80249;SDS011;69561;37.974;23.708;2023-07-31T00:54:00;4.35;;;2.25;;
80249;SDS011;69561;37.974;23.708;2023-07-31T00:56:27;3.15;;;2.30;;
80249;SDS011;69561;37.974;23.708;2023-07-31T00:58:53;6.90;;;2.42;;
80249;SDS011;69561;37.974;23.708;2023-07-31T01:01:20;2.75;;;2.15;;
80249;SDS011;69561;37.974;23.708;2023-07-31T01:03:46;8.00;;;2.38;;
80249;SDS011;69561;37.974;23.708;2023-07-31T01:12:00;3.60;;;2.30;;
80249;SDS011;69561;37.974;23.708;2023-07-31T01:14:27;3.13;;;2.00;;
80249;SDS011;69561;37.974;23.708;2023-07-31T01:16:54;4.90;;;2.22;;
80249;SDS011;69561;37.974;23.708;2023-07-31T01:19:24;4.47;;;2.10;;
80249;SDS011;69561;37.974;23.708;2023-07-31T01:24:49;6.80;;;2.42;;
80249;SDS011;69561;37.974;23.708;2023-07-31T01:27:21;4.18;;;1.85;;
80249;SDS011;69561;37.974;23.708;2023-07-31T01:30:10;2.17;;;1.98;;
80249;SDS011;69561;37.974;23.708;2023-07-31T01:35:08;3.92;;;2.10;;
80249;SDS011;69561;37.974;23.708;2023-07-31T01:37:35;3.60;;;2.20;;
80249;SDS011;69561;37.974;23.708;2023-07-31T01:40:01;3.10;;;2.08;;
80249;SDS011;69561;37.974;23.708;2023-07-31T01:42:26;4.15;;;2.15;;
80249;SDS011;69561;37.974;23.708;2023-07-31T01:44:52;4.22;;;1.92;;
80249;SDS011;69561;37.974;23.708;2023-07-31T01:47:18;3.25;;;2.00;;
80249;SDS011;69561;37.974;23.708;2023-07-31T01:49:43;2.40;;;2.05;;
80249;SDS011;69561;37.974;23.708;2023-07-31T01:52:09;3.50;;;1.75;;
80249;SDS011;69561;37.974;23.708;2023-07-31T01:54:35;4.40;;;1.85;;
80249;SDS011;69561;37.974;23.708;2023-07-31T01:57:01;2.58;;;1.83;;
80249;SDS011;69561;37.974;23.708;2023-07-31T01:59:27;1.70;;;1.60;;
80249;SDS011;69561;37.974;23.708;2023-07-31T02:01:54;3.45;;;1.70;;
80249;SDS011;69561;37.974;23.708;2023-07-31T02:04:20;1.80;;;1.70;;
80249;SDS011;69561;37.974;23.708;2023-07-31T02:06:45;4.57;;;2.25;;
80249;SDS011;69561;37.974;23.708;2023-07-31T02:09:11;2.17;;;1.60;;
80249;SDS011;69561;37.974;23.708;2023-07-31T02:11:37;2.97;;;1.77;;
80249;SDS011;69561;37.974;23.708;2023-07-31T02:14:02;1.75;;;1.63;;
80249;SDS011;69561;37.974;23.708;2023-07-31T02:16:28;2.55;;;1.83;;
80249;SDS011;69561;37.974;23.708;2023-07-31T02:18:54;2.10;;;1.70;;
80249;SDS011;69561;37.974;23.708;2023-07-31T02:21:19;3.88;;;1.90;;
80249;SDS011;69561;37.974;23.708;2023-07-31T02:23:45;3.72;;;1.80;;
80249;SDS011;69561;37.974;23.708;2023-07-31T02:26:11;2.45;;;1.77;;
80249;SDS011;69561;37.974;23.708;2023-07-31T02:28:36;3.25;;;1.67;;
80249;SDS011;69561;37.974;23.708;2023-07-31T02:31:02;3.50;;;1.60;;
80249;SDS011;69561;37.974;23.708;2023-07-31T02:33:28;3.58;;;2.47;;
80249;SDS011;69561;37.974;23.708;2023-07-31T02:35:54;2.22;;;1.70;;
80249;SDS011;69561;37.974;23.708;2023-07-31T02:38:19;4.05;;;1.90;;
80249;SDS011;69561;37.974;23.708;2023-07-31T02:40:45;3.55;;;2.13;;
80249;SDS011;69561;37.974;23.708;2023-07-31T02:43:11;2.28;;;1.80;;
80249;SDS011;69561;37.974;23.708;2023-07-31T02:45:36;4.57;;;1.83;;
80249;SDS011;69561;37.974;23.708;2023-07-31T02:48:02;5.13;;;1.90;;
80249;SDS011;69561;37.974;23.708;2023-07-31T02:50:28;2.30;;;1.70;;
80249;SDS011;69561;37.974;23.708;2023-07-31T02:52:54;2.75;;;2.03;;
80249;SDS011;69561;37.974;23.708;2023-07-31T02:55:19;2.38;;;1.80;;
80249;SDS011;69561;37.974;23.708;2023-07-31T02:57:45;2.92;;;2.00;;
80249;SDS011;69561;37.974;23.708;2023-07-31T03:00:12;2.47;;;2.05;;
80249;SDS011;69561;37.974;23.708;2023-07-31T03:02:38;6.43;;;1.98;;
80249;SDS011;69561;37.974;23.708;2023-07-31T03:05:03;2.97;;;1.95;;
80249;SDS011;69561;37.974;23.708;2023-07-31T03:07:29;2.72;;;1.90;;
80249;SDS011;69561;37.974;23.708;2023-07-31T03:09:55;4.13;;;2.00;;
80249;SDS011;69561;37.974;23.708;2023-07-31T03:12:21;5.63;;;2.20;;
80249;SDS011;69561;37.974;23.708;2023-07-31T03:14:47;3.28;;;2.00;;
80249;SDS011;69561;37.974;23.708;2023-07-31T03:17:13;4.18;;;1.90;;
80249;SDS011;69561;37.974;23.708;2023-07-31T03:19:38;4.40;;;1.80;;
80249;SDS011;69561;37.974;23.708;2023-07-31T03:22:04;2.20;;;1.80;;
80249;SDS011;69561;37.974;23.708;2023-07-31T03:24:30;3.55;;;1.90;;
80249;SDS011;69561;37.974;23.708;2023-07-31T03:26:56;4.43;;;1.90;;
80249;SDS011;69561;37.974;23.708;2023-07-31T03:29:21;2.10;;;1.75;;
80249;SDS011;69561;37.974;23.708;2023-07-31T03:31:47;4.32;;;1.67;;
80249;SDS011;69561;37.974;23.708;2023-07-31T03:34:13;7.50;;;2.17;;
80249;SDS011;69561;37.974;23.708;2023-07-31T03:36:38;3.25;;;2.17;;
80249;SDS011;69561;37.974;23.708;2023-07-31T03:39:04;10.27;;;2.20;;
80249;SDS011;69561;37.974;23.708;2023-07-31T03:41:30;2.88;;;1.90;;
80249;SDS011;69561;37.974;23.708;2023-07-31T03:43:55;4.35;;;2.17;;
80249;SDS011;69561;37.974;23.708;2023-07-31T03:46:21;7.28;;;2.22;;
80249;SDS011;69561;37.974;23.708;2023-07-31T03:48:48;5.35;;;2.15;;
80249;SDS011;69561;37.974;23.708;2023-07-31T03:51:14;5.05;;;2.45;;
80249;SDS011;69561;37.974;23.708;2023-07-31T03:53:39;10.25;;;2.20;;
80249;SDS011;69561;37.974;23.708;2023-07-31T03:56:05;6.60;;;2.35;;
80249;SDS011;69561;37.974;23.708;2023-07-31T03:58:31;9.05;;;2.67;;
80249;SDS011;69561;37.974;23.708;2023-07-31T04:00:57;4.75;;;2.40;;
80249;SDS011;69561;37.974;23.708;2023-07-31T04:03:22;4.60;;;2.25;;
80249;SDS011;69561;37.974;23.708;2023-07-31T04:05:48;8.82;;;2.40;;
80249;SDS011;69561;37.974;23.708;2023-07-31T04:08:14;8.10;;;2.65;;
80249;SDS011;69561;37.974;23.708;2023-07-31T04:10:39;9.65;;;2.58;;
80249;SDS011;69561;37.974;23.708;2023-07-31T04:13:05;6.47;;;2.25;;
80249;SDS011;69561;37.974;23.708;2023-07-31T04:15:31;9.77;;;2.25;;
80249;SDS011;69561;37.974;23.708;2023-07-31T04:17:56;10.80;;;2.85;;
80249;SDS011;69561;37.974;23.708;2023-07-31T04:20:22;56.63;;;4.40;;
80249;SDS011;69561;37.974;23.708;2023-07-31T04:22:48;50.00;;;3.72;;
80249;SDS011;69561;37.974;23.708;2023-07-31T04:25:14;49.05;;;4.18;;
80249;SDS011;69561;37.974;23.708;2023-07-31T04:27:40;61.58;;;5.00;;
80249;SDS011;69561;37.974;23.708;2023-07-31T04:30:06;61.00;;;4.65;;
80249;SDS011;69561;37.974;23.708;2023-07-31T04:32:32;53.53;;;4.55;;
80249;SDS011;69561;37.974;23.708;2023-07-31T04:34:57;38.08;;;4.38;;
80249;SDS011;69561;37.974;23.708;2023-07-31T04:37:23;52.28;;;4.57;;
80249;SDS011;69561;37.974;23.708;2023-07-31T04:39:49;43.90;;;4.32;;
80249;SDS011;69561;37.974;23.708;2023-07-31T04:42:14;56.53;;;4.53;;
80249;SDS011;69561;37.974;23.708;2023-07-31T04:44:40;32.78;;;3.63;;
80249;SDS011;69561;37.974;23.708;2023-07-31T04:47:05;33.15;;;3.88;;
80249;SDS011;69561;37.974;23.708;2023-07-31T04:49:32;29.83;;;3.95;;
80249;SDS011;69561;37.974;23.708;2023-07-31T04:51:58;35.55;;;4.10;;
80249;SDS011;69561;37.974;23.708;2023-07-31T04:54:23;39.33;;;3.72;;
80249;SDS011;69561;37.974;23.708;2023-07-31T04:56:49;26.38;;;3.47;;
80249;SDS011;69561;37.974;23.708;2023-07-31T04:59:15;23.27;;;2.90;;
80249;SDS011;69561;37.974;23.708;2023-07-31T05:01:40;15.55;;;2.80;;
80249;SDS011;69561;37.974;23.708;2023-07-31T05:04:06;30.10;;;3.50;;
80249;SDS011;69561;37.974;23.708;2023-07-31T05:06:32;13.80;;;2.88;;
80249;SDS011;69561;37.974;23.708;2023-07-31T05:08:58;19.30;;;3.22;;
80249;SDS011;69561;37.974;23.708;2023-07-31T05:11:23;18.92;;;2.80;;
80249;SDS011;69561;37.974;23.708;2023-07-31T05:13:49;18.77;;;3.20;;
80249;SDS011;69561;37.974;23.708;2023-07-31T05:16:15;12.70;;;2.88;;
80249;SDS011;69561;37.974;23.708;2023-07-31T05:18:40;9.00;;;3.15;;
80249;SDS011;69561;37.974;23.708;2023-07-31T05:21:06;16.35;;;2.90;;
80249;SDS011;69561;37.974;23.708;2023-07-31T05:23:32;8.80;;;2.55;;
80249;SDS011;69561;37.974;23.708;2023-07-31T05:26:07;7.60;;;2.25;;
80249;SDS011;69561;37.974;23.708;2023-07-31T05:28:35;9.52;;;2.33;;
80249;SDS011;69561;37.974;23.708;2023-07-31T05:31:01;8.52;;;2.10;;
80249;SDS011;69561;37.974;23.708;2023-07-31T05:33:28;4.38;;;2.10;;
80249;SDS011;69561;37.974;23.708;2023-07-31T05:35:53;5.47;;;1.90;;
80249;SDS011;69561;37.974;23.708;2023-07-31T05:38:19;7.18;;;1.80;;
80249;SDS011;69561;37.974;23.708;2023-07-31T05:40:45;6.72;;;1.80;;
80249;SDS011;69561;37.974;23.708;2023-07-31T05:43:12;2.92;;;1.50;;
80249;SDS011;69561;37.974;23.708;2023-07-31T05:45:39;2.55;;;1.50;;
80249;SDS011;69561;37.974;23.708;2023-07-31T05:48:05;6.25;;;1.30;;
80249;SDS011;69561;37.974;23.708;2023-07-31T05:50:31;3.00;;;1.15;;
80249;SDS011;69561;37.974;23.708;2023-07-31T05:52:57;3.03;;;1.30;;
80249;SDS011;69561;37.974;23.708;2023-07-31T05:55:23;2.88;;;1.30;;
80249;SDS011;69561;37.974;23.708;2023-07-31T05:57:51;3.80;;;1.30;;
80249;SDS011;69561;37.974;23.708;2023-07-31T06:00:18;3.65;;;1.35;;
80249;SDS011;69561;37.974;23.708;2023-07-31T06:02:43;3.20;;;1.20;;
80249;SDS011;69561;37.974;23.708;2023-07-31T06:05:09;2.10;;;1.30;;
80249;SDS011;69561;37.974;23.708;2023-07-31T06:07:35;4.15;;;1.10;;
80249;SDS011;69561;37.974;23.708;2023-07-31T06:10:01;2.22;;;0.98;;
80249;SDS011;69561;37.974;23.708;2023-07-31T06:12:30;1.85;;;1.00;;
80249;SDS011;69561;37.974;23.708;2023-07-31T06:14:59;2.40;;;1.00;;
80249;SDS011;69561;37.974;23.708;2023-07-31T06:17:25;2.83;;;0.88;;
80249;SDS011;69561;37.974;23.708;2023-07-31T06:19:54;2.65;;;0.80;;
80249;SDS011;69561;37.974;23.708;2023-07-31T06:22:19;2.88;;;0.90;;
80249;SDS011;69561;37.974;23.708;2023-07-31T06:24:46;1.27;;;1.00;;
80249;SDS011;69561;37.974;23.708;2023-07-31T06:27:11;2.45;;;0.98;;
80249;SDS011;69561;37.974;23.708;2023-07-31T06:29:37;3.58;;;1.00;;
80249;SDS011;69561;37.974;23.708;2023-07-31T06:32:03;2.75;;;0.90;;
80249;SDS011;69561;37.974;23.708;2023-07-31T06:34:29;1.65;;;0.88;;
80249;SDS011;69561;37.974;23.708;2023-07-31T06:36:55;3.42;;;0.93;;
80249;SDS011;69561;37.974;23.708;2023-07-31T06:39:21;1.00;;;0.88;;
80249;SDS011;69561;37.974;23.708;2023-07-31T06:41:47;1.00;;;0.90;;
80249;SDS011;69561;37.974;23.708;2023-07-31T06:44:13;2.22;;;0.90;;
80249;SDS011;69561;37.974;23.708;2023-07-31T06:46:38;1.77;;;1.10;;
80249;SDS011;69561;37.974;23.708;2023-07-31T06:49:04;1.25;;;1.02;;
80249;SDS011;69561;37.974;23.708;2023-07-31T06:51:30;3.35;;;1.00;;
80249;SDS011;69561;37.974;23.708;2023-07-31T06:53:56;1.73;;;1.02;;
80249;SDS011;69561;37.974;23.708;2023-07-31T06:56:23;1.65;;;1.00;;
80249;SDS011;69561;37.974;23.708;2023-07-31T06:58:48;2.20;;;0.98;;
80249;SDS011;69561;37.974;23.708;2023-07-31T07:01:14;2.13;;;0.90;;
80249;SDS011;69561;37.974;23.708;2023-07-31T07:03:40;1.60;;;0.90;;
80249;SDS011;69561;37.974;23.708;2023-07-31T07:06:06;3.05;;;1.27;;
80249;SDS011;69561;37.974;23.708;2023-07-31T07:08:32;1.83;;;1.20;;
80249;SDS011;69561;37.974;23.708;2023-07-31T07:10:57;3.75;;;0.90;;
80249;SDS011;69561;37.974;23.708;2023-07-31T07:13:23;1.65;;;1.08;;
80249;SDS011;69561;37.974;23.708;2023-07-31T07:15:49;1.60;;;1.10;;
80249;SDS011;69561;37.974;23.708;2023-07-31T07:18:15;1.17;;;1.08;;
80249;SDS011;69561;37.974;23.708;2023-07-31T07:20:46;2.45;;;1.15;;
80249;SDS011;69561;37.974;23.708;2023-07-31T07:23:15;4.30;;;1.30;;
80249;SDS011;69561;37.974;23.708;2023-07-31T07:25:41;2.85;;;1.08;;
80249;SDS011;69561;37.974;23.708;2023-07-31T07:28:08;4.25;;;1.35;;
80249;SDS011;69561;37.974;23.708;2023-07-31T07:30:34;1.20;;;1.10;;
80249;SDS011;69561;37.974;23.708;2023-07-31T07:33:00;3.40;;;1.00;;
80249;SDS011;69561;37.974;23.708;2023-07-31T07:35:25;3.33;;;1.10;;
80249;SDS011;69561;37.974;23.708;2023-07-31T07:37:51;1.10;;;1.00;;
80249;SDS011;69561;37.974;23.708;2023-07-31T07:40:17;1.67;;;1.20;;
80249;SDS011;69561;37.974;23.708;2023-07-31T07:42:42;3.58;;;0.90;;
80249;SDS011;69561;37.974;23.708;2023-07-31T07:45:08;5.22;;;1.17;;
80249;SDS011;69561;37.974;23.708;2023-07-31T07:47:34;7.15;;;1.30;;
80249;SDS011;69561;37.974;23.708;2023-07-31T07:50:00;2.08;;;1.20;;
80249;SDS011;69561;37.974;23.708;2023-07-31T07:52:26;2.75;;;1.13;;
80249;SDS011;69561;37.974;23.708;2023-07-31T07:54:51;3.33;;;1.30;;
80249;SDS011;69561;37.974;23.708;2023-07-31T07:57:17;3.63;;;1.20;;
80249;SDS011;69561;37.974;23.708;2023-07-31T07:59:43;4.35;;;1.17;;
80249;SDS011;69561;37.974;23.708;2023-07-31T08:02:09;2.75;;;1.10;;
80249;SDS011;69561;37.974;23.708;2023-07-31T08:04:34;4.35;;;1.38;;
80249;SDS011;69561;37.974;23.708;2023-07-31T08:07:00;3.55;;;1.20;;
80249;SDS011;69561;37.974;23.708;2023-07-31T08:09:26;1.73;;;1.10;;
80249;SDS011;69561;37.974;23.708;2023-07-31T08:11:52;4.05;;;1.35;;
80249;SDS011;69561;37.974;23.708;2023-07-31T08:14:17;6.80;;;1.10;;
80249;SDS011;69561;37.974;23.708;2023-07-31T08:16:43;3.22;;;1.27;;
80249;SDS011;69561;37.974;23.708;2023-07-31T08:19:09;3.40;;;1.25;;
80249;SDS011;69561;37.974;23.708;2023-07-31T08:21:34;6.43;;;1.20;;
80249;SDS011;69561;37.974;23.708;2023-07-31T08:24:00;3.25;;;1.10;;
80249;SDS011;69561;37.974;23.708;2023-07-31T08:26:26;1.90;;;1.30;;
80249;SDS011;69561;37.974;23.708;2023-07-31T08:28:51;3.53;;;1.30;;
80249;SDS011;69561;37.974;23.708;2023-07-31T08:31:17;2.88;;;1.38;;
80249;SDS011;69561;37.974;23.708;2023-07-31T08:33:43;2.65;;;1.20;;
80249;SDS011;69561;37.974;23.708;2023-07-31T08:36:09;3.55;;;1.30;;
80249;SDS011;69561;37.974;23.708;2023-07-31T08:38:35;4.53;;;1.30;;
80249;SDS011;69561;37.974;23.708;2023-07-31T08:41:02;1.38;;;1.17;;
80249;SDS011;69561;37.974;23.708;2023-07-31T08:43:29;2.65;;;1.27;;
80249;SDS011;69561;37.974;23.708;2023-07-31T08:45:55;1.20;;;1.10;;
80249;SDS011;69561;37.974;23.708;2023-07-31T08:48:22;4.40;;;1.20;;
80249;SDS011;69561;37.974;23.708;2023-07-31T08:50:49;4.78;;;1.20;;
80249;SDS011;69561;37.974;23.708;2023-07-31T08:53:15;1.35;;;1.15;;
80249;SDS011;69561;37.974;23.708;2023-07-31T08:55:42;1.60;;;1.20;;
80249;SDS011;69561;37.974;23.708;2023-07-31T08:58:09;3.03;;;1.35;;
80249;SDS011;69561;37.974;23.708;2023-07-31T09:00:37;2.55;;;1.25;;
80249;SDS011;69561;37.974;23.708;2023-07-31T09:03:08;4.82;;;1.42;;
80249;SDS011;69561;37.974;23.708;2023-07-31T09:05:38;8.75;;;1.60;;
80249;SDS011;69561;37.974;23.708;2023-07-31T09:08:06;2.15;;;1.50;;
80249;SDS011;69561;37.974;23.708;2023-07-31T09:10:34;3.45;;;1.50;;
80249;SDS011;69561;37.974;23.708;2023-07-31T09:13:00;3.05;;;1.30;;
80249;SDS011;69561;37.974;23.708;2023-07-31T09:15:27;2.28;;;1.60;;
80249;SDS011;69561;37.974;23.708;2023-07-31T09:18:00;2.53;;;1.70;;
80249;SDS011;69561;37.974;23.708;2023-07-31T09:20:26;4.13;;;1.63;;
80249;SDS011;69561;37.974;23.708;2023-07-31T09:22:52;1.80;;;1.70;;
80249;SDS011;69561;37.974;23.708;2023-07-31T09:25:19;2.22;;;1.55;;
80249;SDS011;69561;37.974;23.708;2023-07-31T09:27:57;1.52;;;1.42;;
80249;SDS011;69561;37.974;23.708;2023-07-31T09:30:24;1.52;;;1.33;;
80249;SDS011;69561;37.974;23.708;2023-07-31T09:32:51;2.78;;;1.33;;
80249;SDS011;69561;37.974;23.708;2023-07-31T09:37:58;1.73;;;1.40;;
80249;SDS011;69561;37.974;23.708;2023-07-31T09:40:29;1.73;;;1.27;;
80249;SDS011;69561;37.974;23.708;2023-07-31T09:43:06;2.42;;;1.20;;
80249;SDS011;69561;37.974;23.708;2023-07-31T09:45:36;1.30;;;1.20;;
80249;SDS011;69561;37.974;23.708;2023-07-31T09:50:36;3.63;;;1.20;;
80249;SDS011;69561;37.974;23.708;2023-07-31T09:53:04;1.17;;;1.08;;
80249;SDS011;69561;37.974;23.708;2023-07-31T09:55:30;1.50;;;1.25;;
80249;SDS011;69561;37.974;23.708;2023-07-31T09:57:59;1.50;;;1.40;;
80249;SDS011;69561;37.974;23.708;2023-07-31T10:00:28;2.08;;;1.27;;
80249;SDS011;69561;37.974;23.708;2023-07-31T10:02:57;2.42;;;1.20;;
80249;SDS011;69561;37.974;23.708;2023-07-31T10:05:24;1.40;;;1.30;;
80249;SDS011;69561;37.974;23.708;2023-07-31T10:08:10;1.35;;;1.25;;
80249;SDS011;69561;37.974;23.708;2023-07-31T10:10:43;1.80;;;1.50;;
80249;SDS011;69561;37.974;23.708;2023-07-31T10:13:09;2.75;;;1.63;;
80249;SDS011;69561;37.974;23.708;2023-07-31T10:15:36;1.95;;;1.70;;
80249;SDS011;69561;37.974;23.708;2023-07-31T10:18:02;1.80;;;1.70;;
80249;SDS011;69561;37.974;23.708;2023-07-31T10:20:30;2.28;;;2.08;;
80249;SDS011;69561;37.974;23.708;2023-07-31T10:22:57;2.25;;;1.83;;
80249;SDS011;69561;37.974;23.708;2023-07-31T10:25:24;1.88;;;1.75;;
80249;SDS011;69561;37.974;23.708;2023-07-31T10:27:51;3.13;;;1.92;;
80249;SDS011;69561;37.974;23.708;2023-07-31T10:30:19;1.90;;;1.80;;
80249;SDS011;69561;37.974;23.708;2023-07-31T10:32:50;2.97;;;1.70;;
80249;SDS011;69561;37.974;23.708;2023-07-31T10:35:17;2.20;;;1.80;;
80249;SDS011;69561;37.974;23.708;2023-07-31T10:37:44;2.22;;;1.65;;
80249;SDS011;69561;37.974;23.708;2023-07-31T10:40:15;2.13;;;1.67;;
80249;SDS011;69561;37.974;23.708;2023-07-31T10:42:49;2.65;;;1.88;;
80249;SDS011;69561;37.974;23.708;2023-07-31T10:45:25;5.13;;;1.80;;
80249;SDS011;69561;37.974;23.708;2023-07-31T10:47:59;1.95;;;1.70;;
80249;SDS011;69561;37.974;23.708;2023-07-31T10:50:26;3.17;;;1.60;;
80249;SDS011;69561;37.974;23.708;2023-07-31T10:52:52;1.80;;;1.70;;
80249;SDS011;69561;37.974;23.708;2023-07-31T11:00:32;1.45;;;1.35;;
80249;SDS011;69561;37.974;23.708;2023-07-31T11:03:00;1.73;;;1.63;;
80249;SDS011;69561;37.974;23.708;2023-07-31T11:10:49;2.65;;;1.70;;
80249;SDS011;69561;37.974;23.708;2023-07-31T11:13:16;1.73;;;1.60;;
80249;SDS011;69561;37.974;23.708;2023-07-31T11:15:42;2.35;;;1.67;;
80249;SDS011;69561;37.974;23.708;2023-07-31T11:18:08;1.58;;;1.48;;
80249;SDS011;69561;37.974;23.708;2023-07-31T11:20:36;1.42;;;1.33;;
80249;SDS011;69561;37.974;23.708;2023-07-31T11:23:03;2.08;;;1.75;;
80249;SDS011;69561;37.974;23.708;2023-07-31T11:25:32;1.80;;;1.70;;
80249;SDS011;69561;37.974;23.708;2023-07-31T11:28:04;2.55;;;1.58;;
80249;SDS011;69561;37.974;23.708;2023-07-31T11:30:31;3.05;;;1.60;;
80249;SDS011;69561;37.974;23.708;2023-07-31T11:32:58;3.60;;;1.83;;
80249;SDS011;69561;37.974;23.708;2023-07-31T11:35:28;4.30;;;1.75;;
80249;SDS011;69561;37.974;23.708;2023-07-31T11:37:57;6.22;;;1.60;;
80249;SDS011;69561;37.974;23.708;2023-07-31T11:40:23;2.28;;;1.60;;
80249;SDS011;69561;37.974;23.708;2023-07-31T11:42:54;2.05;;;1.95;;
80249;SDS011;69561;37.974;23.708;2023-07-31T11:45:26;3.72;;;1.90;;
80249;SDS011;69561;37.974;23.708;2023-07-31T11:47:54;1.50;;;1.40;;
80249;SDS011;69561;37.974;23.708;2023-07-31T11:50:21;2.75;;;1.48;;
80249;SDS011;69561;37.974;23.708;2023-07-31T11:52:49;4.78;;;1.58;;
80249;SDS011;69561;37.974;23.708;2023-07-31T11:55:24;1.70;;;1.30;;
80249;SDS011;69561;37.974;23.708;2023-07-31T11:57:51;4.40;;;1.45;;
80249;SDS011;69561;37.974;23.708;2023-07-31T12:00:18;1.88;;;1.42;;
80249;SDS011;69561;37.974;23.708;2023-07-31T12:02:44;1.50;;;1.40;;
80249;SDS011;69561;37.974;23.708;2023-07-31T12:05:11;3.10;;;1.42;;
80249;SDS011;69561;37.974;23.708;2023-07-31T12:08:11;2.13;;;1.60;;
80249;SDS011;69561;37.974;23.708;2023-07-31T12:10:34;8.43;;;1.30;;
80249;SDS011;69561;37.974;23.708;2023-07-31T12:15:44;3.20;;;1.27;;
80249;SDS011;69561;37.974;23.708;2023-07-31T12:18:12;4.00;;;1.10;;
80249;SDS011;69561;37.974;23.708;2023-07-31T12:20:45;3.95;;;1.30;;
80249;SDS011;69561;37.974;23.708;2023-07-31T12:23:19;4.32;;;1.58;;
80249;SDS011;69561;37.974;23.708;2023-07-31T12:26:15;5.05;;;1.35;;
80249;SDS011;69561;37.974;23.708;2023-07-31T12:28:43;8.02;;;1.50;;
80249;SDS011;69561;37.974;23.708;2023-07-31T12:31:10;4.93;;;1.45;;
80249;SDS011;69561;37.974;23.708;2023-07-31T12:33:38;1.80;;;1.25;;
80249;SDS011;69561;37.974;23.708;2023-07-31T12:36:11;1.92;;;1.30;;
80249;SDS011;69561;37.974;23.708;2023-07-31T12:38:38;4.53;;;1.58;;
80249;SDS011;69561;37.974;23.708;2023-07-31T12:41:03;3.15;;;1.17;;
80249;SDS011;69561;37.974;23.708;2023-07-31T12:43:31;5.80;;;1.40;;
80249;SDS011;69561;37.974;23.708;2023-07-31T12:45:57;10.80;;;1.40;;
80249;SDS011;69561;37.974;23.708;2023-07-31T12:48:23;3.47;;;1.33;;
80249;SDS011;69561;37.974;23.708;2023-07-31T12:50:48;4.45;;;1.33;;
80249;SDS011;69561;37.974;23.708;2023-07-31T12:53:17;2.38;;;1.17;;
80249;SDS011;69561;37.974;23.708;2023-07-31T12:55:43;1.40;;;1.30;;
80249;SDS011;69561;37.974;23.708;2023-07-31T12:58:08;4.75;;;1.40;;
80249;SDS011;69561;37.974;23.708;2023-07-31T13:00:34;2.78;;;1.40;;
80249;SDS011;69561;37.974;23.708;2023-07-31T13:03:00;3.35;;;1.23;;
80249;SDS011;69561;37.974;23.708;2023-07-31T13:05:27;1.98;;;1.50;;
80249;SDS011;69561;37.974;23.708;2023-07-31T13:07:53;4.07;;;1.52;;
80249;SDS011;69561;37.974;23.708;2023-07-31T13:10:19;4.10;;;1.30;;
80249;SDS011;69561;37.974;23.708;2023-07-31T13:12:45;4.30;;;1.40;;
80249;SDS011;69561;37.974;23.708;2023-07-31T13:15:11;6.78;;;1.42;;
80249;SDS011;69561;37.974;23.708;2023-07-31T13:17:37;2.17;;;1.20;;
80249;SDS011;69561;37.974;23.708;2023-07-31T13:20:03;2.40;;;1.30;;
80249;SDS011;69561;37.974;23.708;2023-07-31T13:22:30;2.42;;;1.20;;
80249;SDS011;69561;37.974;23.708;2023-07-31T13:24:55;5.70;;;1.30;;
80249;SDS011;69561;37.974;23.708;2023-07-31T13:27:21;3.97;;;1.30;;
80249;SDS011;69561;37.974;23.708;2023-07-31T13:29:50;3.28;;;1.40;;
80249;SDS011;69561;37.974;23.708;2023-07-31T13:32:17;2.35;;;1.30;;
80249;SDS011;69561;37.974;23.708;2023-07-31T13:34:43;2.28;;;1.40;;
80249;SDS011;69561;37.974;23.708;2023-07-31T13:37:09;8.13;;;1.42;;
80249;SDS011;69561;37.974;23.708;2023-07-31T13:39:35;4.82;;;1.40;;
80249;SDS011;69561;37.974;23.708;2023-07-31T13:42:04;3.05;;;1.30;;
80249;SDS011;69561;37.974;23.708;2023-07-31T13:44:36;3.00;;;1.30;;
80249;SDS011;69561;37.974;23.708;2023-07-31T13:47:03;7.55;;;1.65;;
80249;SDS011;69561;37.974;23.708;2023-07-31T13:49:29;4.07;;;1.48;;
80249;SDS011;69561;37.974;23.708;2023-07-31T13:51:55;6.85;;;1.58;;
80249;SDS011;69561;37.974;23.708;2023-07-31T13:54:24;7.05;;;1.38;;
80249;SDS011;69561;37.974;23.708;2023-07-31T13:56:53;2.63;;;1.30;;
80249;SDS011;69561;37.974;23.708;2023-07-31T13:59:19;3.38;;;1.38;;
80249;SDS011;69561;37.974;23.708;2023-07-31T14:01:45;2.30;;;1.27;;
80249;SDS011;69561;37.974;23.708;2023-07-31T14:04:11;5.10;;;1.55;;
80249;SDS011;69561;37.974;23.708;2023-07-31T14:06:38;3.50;;;1.50;;
80249;SDS011;69561;37.974;23.708;2023-07-31T14:09:03;2.30;;;1.40;;
80249;SDS011;69561;37.974;23.708;2023-07-31T14:11:32;6.25;;;1.70;;
80249;SDS011;69561;37.974;23.708;2023-07-31T14:13:58;5.78;;;1.65;;
80249;SDS011;69561;37.974;23.708;2023-07-31T14:16:24;6.40;;;1.70;;
80249;SDS011;69561;37.974;23.708;2023-07-31T14:18:50;8.07;;;1.67;;
80249;SDS011;69561;37.974;23.708;2023-07-31T14:21:16;2.20;;;1.30;;
80249;SDS011;69561;37.974;23.708;2023-07-31T14:23:44;2.78;;;1.30;;
80249;SDS011;69561;37.974;23.708;2023-07-31T14:26:10;4.38;;;1.50;;
80249;SDS011;69561;37.974;23.708;2023-07-31T14:28:35;4.75;;;1.52;;
80249;SDS011;69561;37.974;23.708;2023-07-31T14:31:01;11.25;;;1.83;;
80249;SDS011;69561;37.974;23.708;2023-07-31T14:33:27;4.80;;;1.65;;
80249;SDS011;69561;37.974;23.708;2023-07-31T14:35:52;4.90;;;1.63;;
80249;SDS011;69561;37.974;23.708;2023-07-31T14:38:19;2.30;;;1.50;;
80249;SDS011;69561;37.974;23.708;2023-07-31T14:40:44;5.20;;;1.50;;
80249;SDS011;69561;37.974;23.708;2023-07-31T14:43:10;2.50;;;1.27;;
80249;SDS011;69561;37.974;23.708;2023-07-31T14:45:36;2.80;;;1.48;;
80249;SDS011;69561;37.974;23.708;2023-07-31T14:48:02;4.32;;;1.50;;
80249;SDS011;69561;37.974;23.708;2023-07-31T14:50:27;4.65;;;1.52;;
80249;SDS011;69561;37.974;23.708;2023-07-31T14:52:53;2.55;;;1.40;;
80249;SDS011;69561;37.974;23.708;2023-07-31T14:55:19;9.88;;;1.55;;
80249;SDS011;69561;37.974;23.708;2023-07-31T14:57:46;2.63;;;1.27;;
80249;SDS011;69561;37.974;23.708;2023-07-31T15:00:12;5.18;;;1.55;;
80249;SDS011;69561;37.974;23.708;2023-07-31T15:02:38;1.67;;;1.38;;